Capitol Logistics 415


KRFD
Chicago/Rockford International Airport
Rockford, Illinois, US
KPVD
Theodore Francis Green State Airport
Providence, Rhode Island, US

Route Details

Aircraft Information
Primary: Boeing 737-800BCF
Backup: Not Available
Route Data
Distance: 790nm
Sched. Duration: 1h 30m
Avg. Duration: 2h 10m (+80m)
Times Flown: 7
Recm'd Route: QUOTE JOT J146 GIJ J554 JHW TRAAD HNK WIPOR3
Planned Altitude: 35,000ft
Origin Wx: KRFD 061154Z 00000KT 10SM BKN120 OVC180 02/M04 A3012 RMK AO2 SLP203 VIRGA T00221039 10033 20011 56004
Dest. Wx: KPVD 061151Z 36009KT 10SM FEW075 FEW300 08/03 A3002 RMK AO2 SLP166 T00830033 10083 20033 53017
Notes:

Financial History
Total Freight: 376,249lbs
Average Load: 53,750lbs/flt
Fuel Used: 109,586lbs
Avg. Fuel Used: 15,655lbs/flt
Fuel Expense: $78,155
Avg. Fuel Expense: $11,165
Avg. Fuel Cost: $0.71/lbs
Total Gross Income: $483,650
Pilot Pay: $1,123
Total Expenses: $52,598
Total Revenue: $349,640
Average Revenue: $69,092.79